Time;durP1;ratioP1;P1;durP2;ratioP2;P2;SDS_P1;SDS_P2;PMS_P1;PMS_P2;Temp;Humidity;BMP_temperature;BMP_pressure;BME280_temperature;BME280_humidity;BME280_pressure;Samples;Min_cycle;Max_cycle;Signal;HPM_P1;HPM_P2
2022/12/16 00:02:23;;;;;;;;;;;;;;;-3.55;100.00;98624.53;5005904;28;19933;-73
2022/12/16 00:04:48;;;;;;;;;;;;;;;-3.75;100.00;98625.00;5005762;28;19928;-72
2022/12/16 00:07:13;;;;;;;;;;;;;;;-3.64;100.00;98628.56;5004423;28;19928;-72
2022/12/16 00:09:38;;;;;;;;;;;;;;;-3.78;100.00;98625.81;5005052;28;19917;-72
2022/12/16 00:12:04;;;;;;;;;;;;;;;-3.79;100.00;98625.75;5005491;28;19921;-72
2022/12/16 00:14:29;;;;;;;;;;;;;;;-3.74;100.00;98625.84;5005013;28;19918;-72
2022/12/16 00:16:54;;;;;;;;;;;;;;;-4.00;100.00;98623.69;5005899;28;19921;-72
2022/12/16 00:19:19;;;;;;;;;;;;;;;-3.94;100.00;98623.81;5003394;28;19948;-72
2022/12/16 00:21:45;;;;;;;;;;;;;;;-3.93;100.00;98630.53;5004998;28;19983;-72
2022/12/16 00:24:10;;;;;;;;;;;;;;;-4.05;100.00;98620.22;5004684;28;19925;-72
2022/12/16 00:26:35;;;;;;;;;;;;;;;-4.00;100.00;98638.78;5005920;28;20016;-72
2022/12/16 00:29:01;;;;;;;;;;;;;;;-3.91;100.00;98633.91;5006109;28;19960;-72
2022/12/16 00:31:26;;;;;;;;;;;;;;;-3.82;100.00;98628.22;5006032;28;20394;-72
2022/12/16 00:33:54;;;;;;;;;;;;;;;-3.83;100.00;98627.38;5006034;28;19924;-72
2022/12/16 00:36:19;;;;;;;;;;;;;;;-3.69;100.00;98627.66;5005518;28;19967;-72
2022/12/16 00:38:45;;;;;;;;;;;;;;;-3.74;100.00;98623.31;5004160;28;19953;-72
2022/12/16 00:41:10;;;;;;;;;;;;;;;-3.80;100.00;98619.03;5005611;28;19992;-73
2022/12/16 00:43:35;;;;;;;;;;;;;;;-3.90;100.00;98607.09;5005058;28;19921;-72
2022/12/16 00:46:00;;;;;;;;;;;;;;;-4.15;100.00;98605.75;5004089;28;19913;-72
2022/12/16 00:48:25;;;;;;;;;;;;;;;-3.93;100.00;98614.59;5005214;28;20008;-72
2022/12/16 00:50:51;;;;;;;;;;;;;;;-3.88;100.00;98618.88;5005603;28;19917;-72
2022/12/16 00:53:16;;;;;;;;;;;;;;;-4.18;100.00;98618.28;5003904;28;20296;-73
2022/12/16 00:55:42;;;;;;;;;;;;;;;-4.33;100.00;98608.75;5005232;28;20016;-72
2022/12/16 00:58:07;;;;;;;;;;;;;;;-4.31;100.00;98612.13;5003720;28;19925;-72
2022/12/16 01:00:32;;;;;;;;;;;;;;;-4.17;100.00;98604.88;5003480;28;19921;-72
2022/12/16 01:02:57;;;;;;;;;;;;;;;-4.45;100.00;98606.81;5004974;28;20303;-72
2022/12/16 01:05:25;;;;;;;;;;;;;;;-4.64;100.00;98593.88;4994838;28;20343;-72
2022/12/16 01:07:51;;;;;;;;;;;;;;;-4.45;100.00;98609.34;5003544;28;19918;-72
2022/12/16 01:10:16;;;;;;;;;;;;;;;-4.23;100.00;98600.59;5005140;28;20268;-72
2022/12/16 01:12:42;;;;;;;;;;;;;;;-4.25;100.00;98610.59;5003818;28;20365;-72
2022/12/16 01:15:07;;;;;;;;;;;;;;;-4.33;100.00;98613.78;5005015;28;19963;-72
2022/12/16 01:17:33;;;;;;;;;;;;;;;-4.22;100.00;98617.34;5005231;28;20345;-72
2022/12/16 01:19:59;;;;;;;;;;;;;;;-4.57;100.00;98614.13;5004521;28;19944;-72
2022/12/16 01:22:25;;;;;;;;;;;;;;;-4.44;100.00;98616.09;5004555;28;19922;-72
2022/12/16 01:24:50;;;;;;;;;;;;;;;-4.36;100.00;98619.59;5003792;28;19920;-72
2022/12/16 01:27:15;;;;;;;;;;;;;;;-4.23;100.00;98620.69;5004998;28;19968;-71
2022/12/16 01:29:41;;;;;;;;;;;;;;;-4.24;100.00;98627.41;5005038;28;20402;-72
2022/12/16 01:32:08;;;;;;;;;;;;;;;-4.37;100.00;98625.44;5003376;28;19972;-71
2022/12/16 01:34:33;;;;;;;;;;;;;;;-4.28;100.00;98623.13;5003647;28;19932;-72
2022/12/16 01:36:58;;;;;;;;;;;;;;;-4.12;100.00;98633.50;5003580;28;20000;-71
2022/12/16 01:39:26;;;;;;;;;;;;;;;-4.08;100.00;98630.22;5004430;28;20258;-72
2022/12/16 01:41:51;;;;;;;;;;;;;;;-4.11;100.00;98632.69;5004105;28;21081;-71
2022/12/16 01:44:20;;;;;;;;;;;;;;;-4.23;100.00;98626.56;5002700;28;19933;-71
2022/12/16 01:46:49;;;;;;;;;;;;;;;-4.41;100.00;98627.03;5002562;28;19921;-72
2022/12/16 01:49:30;;;;;;;;;;;;;;;-4.42;100.00;98624.50;5004092;28;19917;-71
2022/12/16 01:51:57;;;;;;;;;;;;;;;-4.57;100.00;98621.66;5004700;28;19929;-71
2022/12/16 01:54:27;;;;;;;;;;;;;;;-4.54;100.00;98609.97;5002850;28;19917;-71
2022/12/16 01:56:54;;;;;;;;;;;;;;;-4.30;100.00;98622.25;5002331;28;19921;-72
2022/12/16 01:59:19;;;;;;;;;;;;;;;-4.62;100.00;98619.03;5001600;28;19967;-72
2022/12/16 02:01:44;;;;;;;;;;;;;;;-4.37;100.00;98627.97;5003201;28;20396;-71
2022/12/16 02:04:12;;;;;;;;;;;;;;;-4.36;100.00;98627.13;5003591;28;20224;-73
2022/12/16 02:06:37;;;;;;;;;;;;;;;-4.40;100.00;98627.91;5006613;28;19979;-72
2022/12/16 02:09:05;;;;;;;;;;;;;;;-4.56;100.00;98620.81;5010384;28;19921;-72
2022/12/16 02:11:36;;;;;;;;;;;;;;;-4.42;100.00;98619.47;5009703;28;19941;-72
2022/12/16 02:14:01;;;;;;;;;;;;;;;-4.26;100.00;98626.53;5011212;28;19917;-72
2022/12/16 02:16:29;;;;;;;;;;;;;;;-4.05;100.00;98627.78;5011096;28;19917;-72
2022/12/16 02:19:13;;;;;;;;;;;;;;;-4.29;100.00;98626.47;5010517;28;20644;-72
2022/12/16 02:21:50;;;;;;;;;;;;;;;-4.43;100.00;98627.81;5010859;28;19929;-72
2022/12/16 02:24:24;;;;;;;;;;;;;;;-4.50;100.00;98633.53;5010952;28;19929;-72
2022/12/16 02:27:08;;;;;;;;;;;;;;;-4.30;100.00;98634.81;5009657;28;20953;-72
2022/12/16 02:29:36;;;;;;;;;;;;;;;-4.69;100.00;98633.13;5010792;28;19933;-72
2022/12/16 02:32:08;;;;;;;;;;;;;;;-4.39;100.00;98637.13;5010965;28;19917;-72
2022/12/16 02:34:37;;;;;;;;;;;;;;;-4.72;100.00;98630.56;5009890;28;20431;-72
2022/12/16 02:37:05;;;;;;;;;;;;;;;-4.61;100.00;98638.31;5010715;28;19921;-72
2022/12/16 02:39:34;;;;;;;;;;;;;;;-4.64;100.00;98639.09;5010416;28;20603;-72
2022/12/16 02:42:13;;;;;;;;;;;;;;;-5.09;100.00;98623.81;4992173;28;19926;-72
2022/12/16 02:44:42;;;;;;;;;;;;;;;-5.35;100.00;98621.50;5009900;28;19918;-72
2022/12/16 02:47:08;;;;;;;;;;;;;;;-5.66;100.00;98619.88;5008868;28;19925;-72
2022/12/16 02:49:33;;;;;;;;;;;;;;;-5.19;100.00;98627.75;5008171;28;19979;-72
2022/12/16 02:51:58;;;;;;;;;;;;;;;-5.27;100.00;98635.09;5010764;28;19944;-71
2022/12/16 02:54:24;;;;;;;;;;;;;;;-5.43;100.00;98634.66;5009822;28;19963;-71
2022/12/16 02:56:49;;;;;;;;;;;;;;;-5.32;100.00;98645.81;5008779;28;19921;-71
2022/12/16 02:59:17;;;;;;;;;;;;;;;-5.32;100.00;98644.16;5009792;28;19928;-71
2022/12/16 03:02:03;;;;;;;;;;;;;;;-5.41;100.00;98640.56;5010425;28;19925;-71
2022/12/16 03:04:30;;;;;;;;;;;;;;;-5.18;100.00;98649.53;5010043;28;19966;-71
2022/12/16 03:06:56;;;;;;;;;;;;;;;-5.38;100.00;98645.66;5008556;28;19971;-72
2022/12/16 03:09:23;;;;;;;;;;;;;;;-5.41;100.00;98653.97;5010404;28;19925;-71
2022/12/16 03:11:48;;;;;;;;;;;;;;;-5.33;100.00;98657.53;5009288;28;19969;-72
2022/12/16 03:14:14;;;;;;;;;;;;;;;-5.26;100.00;98661.91;5009101;28;20419;-72
2022/12/16 03:16:39;;;;;;;;;;;;;;;-5.19;100.00;98662.06;5009104;28;20467;-71
2022/12/16 03:19:05;;;;;;;;;;;;;;;-5.39;100.00;98659.88;5005115;28;19918;-72
2022/12/16 03:21:32;;;;;;;;;;;;;;;-5.68;100.00;98644.06;5007371;28;20352;-72
2022/12/16 03:23:59;;;;;;;;;;;;;;;-5.42;100.00;98659.81;5006052;28;19921;-71
2022/12/16 03:26:29;;;;;;;;;;;;;;;-5.31;100.00;98657.59;5005928;28;20403;-71
2022/12/16 03:28:56;;;;;;;;;;;;;;;-5.38;100.00;98655.69;5005249;28;19960;-71
2022/12/16 03:31:25;;;;;;;;;;;;;;;-5.58;100.00;98658.56;5006965;28;20272;-71
2022/12/16 03:33:53;;;;;;;;;;;;;;;-5.46;100.00;98653.84;5005899;28;19917;-71
2022/12/16 03:36:21;;;;;;;;;;;;;;;-5.48;100.00;98660.47;5005961;28;19917;-71
2022/12/16 03:38:47;;;;;;;;;;;;;;;-5.52;100.00;98653.72;5005137;28;19922;-71
2022/12/16 03:41:12;;;;;;;;;;;;;;;-5.61;100.00;98661.00;5004989;28;19982;-71
2022/12/16 03:43:37;;;;;;;;;;;;;;;-5.74;100.00;98661.47;5006328;28;19921;-72
2022/12/16 03:46:03;;;;;;;;;;;;;;;-5.55;100.00;98668.66;5005364;28;19948;-73
2022/12/16 03:48:29;;;;;;;;;;;;;;;-5.36;100.00;98674.16;5004866;28;20363;-71
2022/12/16 03:50:55;;;;;;;;;;;;;;;-5.13;100.00;98677.25;5006375;28;19921;-71
2022/12/16 03:53:23;;;;;;;;;;;;;;;-5.15;100.00;98677.22;5006532;28;19925;-72
2022/12/16 03:55:48;;;;;;;;;;;;;;;-5.14;100.00;98675.56;5006792;28;20433;-72
2022/12/16 03:58:13;;;;;;;;;;;;;;;-5.00;100.00;98678.41;5006111;28;19971;-72
2022/12/16 04:00:39;;;;;;;;;;;;;;;-5.08;100.00;98681.59;5004758;28;19924;-72
2022/12/16 04:03:04;;;;;;;;;;;;;;;-5.22;100.00;98682.91;4989011;28;20040;-72
2022/12/16 04:05:29;;;;;;;;;;;;;;;-5.33;100.00;98679.28;5006251;28;19952;-72
2022/12/16 04:07:54;;;;;;;;;;;;;;;-5.31;100.00;98675.16;5006212;28;19918;-72
2022/12/16 04:24:17;;;;;;;;;;;;;;;-5.34;100.00;98682.59;5004001;28;19922;-72
2022/12/16 04:24:19;;;;;;;;;;;;;;;-5.21;100.00;98693.78;5004385;28;19928;-72
2022/12/16 04:29:28;;;;;;;;;;;;;;;-5.26;100.00;98691.16;5004261;28;19933;-72
2022/12/16 04:31:53;;;;;;;;;;;;;;;-5.25;100.00;98695.38;5004519;28;19921;-73
2022/12/16 04:34:25;;;;;;;;;;;;;;;-5.17;100.00;98696.44;5004562;28;19928;-72
